createdAt,value
2018-02-21T00:00:04.901Z,-1.1
2018-02-21T00:05:02.631Z,-1.1
2018-02-21T00:10:03.176Z,-1.2
2018-02-21T00:15:02.677Z,-1.5
2018-02-21T00:20:03.141Z,-1.7
2018-02-21T00:25:02.585Z,-1.5
2018-02-21T00:30:03.102Z,-1.7
2018-02-21T00:35:02.608Z,-1.5
2018-02-21T00:40:03.095Z,-1.5
2018-02-21T00:45:02.965Z,-1.7
2018-02-21T00:50:02.431Z,-1.7
2018-02-21T00:55:02.867Z,-1.7
2018-02-21T01:00:03.312Z,-1.8
2018-02-21T01:05:02.423Z,-1.8
2018-02-21T01:10:03.020Z,-1.7
2018-02-21T01:15:02.559Z,-1.7
2018-02-21T01:20:03.093Z,-1.7
2018-02-21T01:25:02.624Z,-1.8
2018-02-21T01:30:03.085Z,-1.7
2018-02-21T01:35:02.634Z,-2.0
2018-02-21T01:40:03.096Z,-2.0
2018-02-21T01:45:02.436Z,-2.0
2018-02-21T01:50:02.954Z,-2.0
2018-02-21T01:55:03.369Z,-2.2
2018-02-21T02:00:02.793Z,-2.2
2018-02-21T02:05:03.211Z,-2.2
2018-02-21T02:10:02.770Z,-2.2
2018-02-21T02:15:03.262Z,-2.0
2018-02-21T02:20:02.774Z,-2.0
2018-02-21T02:25:03.288Z,-2.0
2018-02-21T02:30:02.741Z,-2.2
2018-02-21T02:35:03.286Z,-2.2
2018-02-21T02:40:02.980Z,-2.2
2018-02-21T02:45:02.564Z,-2.2
2018-02-21T02:50:03.051Z,-2.0
2018-02-21T02:55:02.563Z,-2.0
2018-02-21T03:00:03.158Z,-2.0
2018-02-21T03:05:02.605Z,-2.0
2018-02-21T03:10:03.071Z,-2.2
2018-02-21T03:15:02.536Z,-2.5
2018-02-21T03:20:03.161Z,-2.2
2018-02-21T03:25:02.630Z,-2.2
2018-02-21T03:30:03.056Z,-2.2
2018-02-21T03:35:02.598Z,-2.5
2018-02-21T03:40:03.113Z,-2.5
2018-02-21T03:45:02.586Z,-2.5
2018-02-21T03:50:03.081Z,-2.5
2018-02-21T03:55:02.556Z,-2.7
2018-02-21T04:00:03.066Z,-2.7
2018-02-21T04:05:02.551Z,-2.9
2018-02-21T04:10:03.071Z,-2.7
2018-02-21T04:15:02.467Z,-2.7
2018-02-21T04:20:02.971Z,-2.9
2018-02-21T04:25:02.416Z,-3.0
2018-02-21T04:30:02.822Z,-3.0
2018-02-21T04:35:03.346Z,-3.0
2018-02-21T04:40:02.911Z,-3.0
2018-02-21T04:45:02.389Z,-3.0
2018-02-21T04:50:02.907Z,-3.0
2018-02-21T04:55:02.414Z,-3.0
2018-02-21T05:00:03.206Z,-2.9
2018-02-21T05:05:02.700Z,-2.9
2018-02-21T05:10:03.228Z,-3.2
2018-02-21T05:15:02.612Z,-3.2
2018-02-21T05:20:03.084Z,-3.2
2018-02-21T05:25:02.540Z,-3.2
2018-02-21T05:30:02.803Z,-3.2
2018-02-21T05:35:03.373Z,-3.2
2018-02-21T05:40:02.886Z,-3.2
2018-02-21T05:45:03.318Z,-3.2
2018-02-21T05:50:02.769Z,-3.5
2018-02-21T05:55:03.255Z,-3.2
2018-02-21T06:00:02.669Z,-3.2
2018-02-21T06:05:03.143Z,-3.2
2018-02-21T06:10:02.665Z,-3.2
2018-02-21T06:15:03.076Z,-3.2
2018-02-21T06:20:02.565Z,-3.2
2018-02-21T06:25:03.060Z,-3.2
2018-02-21T06:30:02.745Z,-3.2
2018-02-21T06:35:03.259Z,-3.2
2018-02-21T06:40:02.745Z,-3.2
2018-02-21T06:45:03.207Z,-3.2
2018-02-21T06:50:02.616Z,-3.5
2018-02-21T06:55:03.068Z,-3.2
2018-02-21T07:00:02.846Z,-3.2
2018-02-21T07:05:03.273Z,-3.2
2018-02-21T07:10:02.843Z,-3.2
2018-02-21T07:15:03.345Z,-3.0
2018-02-21T07:20:02.839Z,-3.0
2018-02-21T07:25:03.318Z,-3.0
2018-02-21T07:30:03.118Z,-3.2
2018-02-21T07:35:02.643Z,-3.0
2018-02-21T07:40:03.208Z,-2.9
2018-02-21T07:45:02.678Z,-2.7
2018-02-21T07:50:03.133Z,-2.5
2018-02-21T07:55:02.582Z,-2.2
2018-02-21T08:00:03.088Z,-2.2
2018-02-21T08:05:02.604Z,-2.2
2018-02-21T08:10:02.440Z,-2.2
2018-02-21T08:15:02.901Z,-2.0
2018-02-21T08:20:03.361Z,-1.8
2018-02-21T08:25:02.769Z,-1.5
2018-02-21T08:30:03.174Z,-1.1
2018-02-21T08:35:02.676Z,-0.6
2018-02-21T08:40:03.176Z,-0.5
2018-02-21T08:45:02.624Z,-0.3
2018-02-21T08:50:03.236Z,0.0
2018-02-21T08:55:02.656Z,0.3
2018-02-21T09:00:03.171Z,0.6
2018-02-21T09:05:02.691Z,1.1
2018-02-21T09:10:03.280Z,1.1
2018-02-21T09:15:02.783Z,1.1
2018-02-21T09:20:03.299Z,1.3
2018-02-21T09:25:02.852Z,1.6
2018-02-21T09:30:03.287Z,2.2
2018-02-21T09:35:02.727Z,3.0
2018-02-21T09:40:03.184Z,2.9
2018-02-21T09:45:02.639Z,2.9
2018-02-21T09:50:03.163Z,3.5
2018-02-21T09:55:02.679Z,3.2
2018-02-21T10:00:03.117Z,2.9
2018-02-21T10:05:02.537Z,3.0
2018-02-21T10:10:03.122Z,3.5
2018-02-21T10:15:02.565Z,3.2
2018-02-21T10:20:03.143Z,3.7
2018-02-21T10:25:02.530Z,4.5
2018-02-21T10:30:03.047Z,4.5
2018-02-21T10:35:02.553Z,4.3
2018-02-21T10:40:03.082Z,4.5
2018-02-21T10:45:02.582Z,4.8
2018-02-21T10:50:03.075Z,4.5
2018-02-21T10:55:02.540Z,4.5
2018-02-21T11:00:03.024Z,4.5
2018-02-21T11:05:02.477Z,4.8
2018-02-21T11:10:03.045Z,5.3
2018-02-21T11:15:02.520Z,6.0
2018-02-21T11:20:03.044Z,5.9
2018-02-21T11:25:02.597Z,5.3
2018-02-21T11:30:03.022Z,6.5
2018-02-21T11:35:02.596Z,7.0
2018-02-21T11:40:03.189Z,6.9
2018-02-21T11:45:02.655Z,6.4
2018-02-21T11:50:03.158Z,6.1
2018-02-21T11:55:02.666Z,5.9
2018-02-21T12:00:03.134Z,6.6
2018-02-21T12:05:02.640Z,6.4
2018-02-21T12:10:03.145Z,6.1
2018-02-21T12:15:02.635Z,6.5
2018-02-21T12:20:03.174Z,6.4
2018-02-21T12:25:02.647Z,6.6
2018-02-21T12:30:03.148Z,6.5
2018-02-21T12:35:02.661Z,7.0
2018-02-21T12:40:03.231Z,6.0
2018-02-21T12:45:02.658Z,6.0
2018-02-21T12:50:03.110Z,6.5
2018-02-21T12:55:02.549Z,7.1
2018-02-21T13:00:03.016Z,7.4
2018-02-21T13:05:02.525Z,7.1
2018-02-21T13:10:03.156Z,6.9
2018-02-21T13:15:02.611Z,6.5
2018-02-21T13:20:03.133Z,6.5
2018-02-21T13:25:02.532Z,6.6
2018-02-21T13:30:02.997Z,7.0
2018-02-21T13:35:02.475Z,7.5
2018-02-21T13:40:03.003Z,7.4
2018-02-21T13:45:02.416Z,7.1
2018-02-21T13:50:02.978Z,6.4
2018-02-21T13:55:02.413Z,7.0
2018-02-21T14:00:02.850Z,6.9
2018-02-21T14:05:03.313Z,7.0
2018-02-21T14:10:02.882Z,6.9
2018-02-21T14:15:02.438Z,7.1
2018-02-21T14:20:02.964Z,7.1
2018-02-21T14:25:02.570Z,6.6
2018-02-21T14:30:03.088Z,6.1
2018-02-21T14:35:02.566Z,6.0
2018-02-21T14:40:03.067Z,6.4
2018-02-21T14:45:02.528Z,6.9
2018-02-21T14:50:03.060Z,6.5
2018-02-21T14:55:02.553Z,6.6
2018-02-21T15:00:03.084Z,6.1
2018-02-21T15:05:02.615Z,5.5
2018-02-21T15:10:03.230Z,5.5
2018-02-21T15:15:02.661Z,5.8
2018-02-21T15:20:03.066Z,6.0
2018-02-21T15:25:02.567Z,6.0
2018-02-21T15:30:02.970Z,6.4
2018-02-21T15:35:02.432Z,5.4
2018-02-21T15:40:03.023Z,5.8
2018-02-21T15:45:02.460Z,5.3
2018-02-21T15:50:03.011Z,5.3
2018-02-21T15:55:02.487Z,4.8
2018-02-21T16:00:03.115Z,4.5
2018-02-21T16:05:02.647Z,4.3
2018-02-21T16:10:03.174Z,4.0
2018-02-21T16:15:02.621Z,3.2
2018-02-21T16:20:03.169Z,3.0
2018-02-21T16:25:02.655Z,2.9
2018-02-21T16:30:03.157Z,2.7
2018-02-21T16:35:02.615Z,2.5
2018-02-21T16:40:03.085Z,2.4
2018-02-21T16:45:02.629Z,2.0
2018-02-21T16:50:03.106Z,2.0
2018-02-21T16:55:02.535Z,1.7
2018-02-21T17:00:02.963Z,1.7
2018-02-21T17:05:02.503Z,1.6
2018-02-21T17:10:03.033Z,1.3
2018-02-21T17:15:02.611Z,1.3
2018-02-21T17:20:03.070Z,1.2
2018-02-21T17:25:02.538Z,1.2
2018-02-21T17:30:03.038Z,1.1
2018-02-21T17:35:02.451Z,0.8
2018-02-21T17:40:03.013Z,0.8
2018-02-21T17:45:02.523Z,0.7
2018-02-21T17:50:03.113Z,0.7
2018-02-21T17:55:02.547Z,0.7
2018-02-21T18:00:03.063Z,0.6
2018-02-21T18:05:02.599Z,0.7
2018-02-21T18:10:03.176Z,0.6
2018-02-21T18:15:02.950Z,0.6
2018-02-21T18:20:02.407Z,0.6
2018-02-21T18:25:02.839Z,0.4
2018-02-21T18:30:03.376Z,0.3
2018-02-21T18:35:02.873Z,0.1
2018-02-21T18:40:03.365Z,0.3
2018-02-21T18:45:02.834Z,0.1
2018-02-21T18:50:03.364Z,0.1
2018-02-21T18:55:02.831Z,0.1
2018-02-21T19:00:02.399Z,0.1
2018-02-21T19:05:02.860Z,0.1
2018-02-21T19:10:03.264Z,0.1
2018-02-21T19:15:02.707Z,0.1
2018-02-21T19:20:03.273Z,0.0
2018-02-21T19:25:02.702Z,0.0
2018-02-21T19:30:03.274Z,0.0
2018-02-21T19:35:02.793Z,0.0
2018-02-21T19:40:03.391Z,-0.3
2018-02-21T19:45:02.918Z,-0.3
2018-02-21T19:50:02.445Z,-0.5
2018-02-21T19:55:04.101Z,-0.5
2018-02-21T20:00:02.521Z,-0.5
2018-02-21T20:05:03.022Z,-0.5
2018-02-21T20:10:02.849Z,-0.5
2018-02-21T20:15:03.317Z,-0.5
2018-02-21T20:20:02.894Z,-0.6
2018-02-21T20:25:02.637Z,-0.8
2018-02-21T20:30:03.166Z,-0.8
2018-02-21T20:35:02.731Z,-0.8
2018-02-21T20:40:03.318Z,-0.6
2018-02-21T20:45:03.078Z,-0.8
2018-02-21T20:50:02.629Z,-0.8
2018-02-21T20:55:03.099Z,-0.8
2018-02-21T21:00:02.590Z,-1.1
2018-02-21T21:05:03.229Z,-1.1
2018-02-21T21:10:02.815Z,-1.2
2018-02-21T21:15:03.268Z,-1.1
2018-02-21T21:20:02.724Z,-1.2
2018-02-21T21:25:03.201Z,-1.2
2018-02-21T21:30:02.714Z,-1.2
2018-02-21T21:35:03.345Z,-1.2
2018-02-21T21:40:02.903Z,-1.5
2018-02-21T21:45:02.386Z,-1.5
2018-02-21T21:50:02.955Z,-1.2
2018-02-21T21:55:02.666Z,-1.2
2018-02-21T22:00:02.402Z,-1.5
2018-02-21T22:05:02.945Z,-1.5
2018-02-21T22:10:02.403Z,-1.7
2018-02-21T22:15:02.866Z,-1.5
2018-02-21T22:20:03.268Z,-1.7
2018-02-21T22:25:02.791Z,-1.5
2018-02-21T22:30:03.380Z,-1.7
2018-02-21T22:35:02.817Z,-1.7
2018-02-21T22:40:03.369Z,-1.7
2018-02-21T22:45:03.105Z,-1.7
2018-02-21T22:50:02.552Z,-1.7
2018-02-21T22:55:03.014Z,-1.8
2018-02-21T23:00:02.462Z,-1.8
2018-02-21T23:05:02.919Z,-1.8
2018-02-21T23:10:02.418Z,-1.8
2018-02-21T23:15:02.894Z,-1.8
2018-02-21T23:20:02.411Z,-2.0
2018-02-21T23:25:02.884Z,-1.8
2018-02-21T23:30:03.374Z,-2.0
2018-02-21T23:35:02.861Z,-2.0
2018-02-21T23:40:03.374Z,-2.0
2018-02-21T23:45:02.757Z,-2.0
2018-02-21T23:50:03.217Z,-2.2
2018-02-21T23:55:02.642Z,-2.2
